Time;durP1;ratioP1;P1;durP2;ratioP2;P2;SDS_P1;SDS_P2;PMS_P1;PMS_P2;Temp;Humidity;BMP_temperature;BMP_pressure;BME280_temperature;BME280_humidity;BME280_pressure;Samples;Min_cycle;Max_cycle;Signal;HPM_P1;HPM_P2
2021/07/26 00:02:22;;;;;;;1.30;1.20;;;24.40;59.00;;;;;;6218978;28;20028;-68
2021/07/26 00:05:23;;;;;;;1.52;1.42;;;24.40;59.10;;;;;;6217596;28;20104;-69
2021/07/26 00:08:24;;;;;;;1.48;1.30;;;24.40;59.10;;;;;;6217634;28;20091;-69
2021/07/26 00:11:24;;;;;;;1.10;1.00;;;24.40;59.10;;;;;;6219006;28;20480;-68
2021/07/26 00:14:25;;;;;;;1.30;1.20;;;24.40;59.10;;;;;;6204768;28;20377;-68
2021/07/26 00:17:26;;;;;;;1.40;1.30;;;24.40;59.10;;;;;;6208021;28;20042;-68
2021/07/26 00:20:26;;;;;;;1.58;1.30;;;24.40;59.10;;;;;;6218749;28;20611;-69
2021/07/26 00:23:28;;;;;;;1.58;1.30;;;24.40;59.10;;;;;;6218359;28;20043;-68
2021/07/26 00:26:28;;;;;;;1.50;1.20;;;24.40;59.10;;;;;;6218941;28;20033;-69
2021/07/26 00:29:29;;;;;;;1.40;1.17;;;24.40;59.10;;;;;;6218708;28;20028;-68
2021/07/26 00:32:29;;;;;;;1.20;1.10;;;24.40;59.10;;;;;;6218018;28;20030;-68
2021/07/26 00:35:30;;;;;;;1.85;1.20;;;24.40;59.10;;;;;;6218429;28;20022;-69
2021/07/26 00:38:30;;;;;;;1.30;1.20;;;24.40;59.10;;;;;;6218126;28;20042;-68
2021/07/26 00:41:32;;;;;;;1.65;1.13;;;24.40;59.10;;;;;;6218008;28;20060;-68
2021/07/26 00:44:33;;;;;;;1.50;1.40;;;24.40;59.10;;;;;;6218279;28;20060;-69
2021/07/26 00:47:34;;;;;;;1.13;1.02;;;24.40;59.10;;;;;;6217686;28;20096;-68
2021/07/26 00:50:34;;;;;;;1.20;1.10;;;24.40;59.10;;;;;;6218379;28;20026;-69
2021/07/26 00:53:35;;;;;;;2.13;1.45;;;24.40;59.10;;;;;;6217470;28;20378;-68
2021/07/26 00:56:37;;;;;;;1.40;1.30;;;24.40;59.10;;;;;;6218221;28;20080;-68
2021/07/26 00:59:39;;;;;;;1.30;1.20;;;24.40;59.10;;;;;;6217943;28;20113;-68
2021/07/26 01:02:39;;;;;;;1.48;1.38;;;24.40;59.20;;;;;;6217739;28;20036;-69
2021/07/26 01:05:40;;;;;;;1.27;1.10;;;24.40;59.10;;;;;;6217421;28;20026;-68
2021/07/26 01:08:41;;;;;;;1.65;1.42;;;24.40;59.10;;;;;;6217676;28;20033;-68
2021/07/26 01:11:43;;;;;;;1.20;1.10;;;24.40;59.10;;;;;;6217707;28;20026;-68
2021/07/26 01:14:44;;;;;;;1.40;1.20;;;24.40;59.10;;;;;;6200724;28;20041;-69
2021/07/26 01:18:23;;;;;;;1.65;1.02;;;24.40;59.10;;;;;;6198864;28;20026;-69
2021/07/26 01:21:23;;;;;;;2.88;1.52;;;24.40;59.10;;;;;;6218850;28;20025;-68
2021/07/26 01:24:24;;;;;;;1.23;1.13;;;24.40;59.10;;;;;;6217622;28;20040;-68
2021/07/26 01:27:25;;;;;;;1.30;1.20;;;24.40;59.10;;;;;;6217171;28;20101;-68
2021/07/26 01:30:25;;;;;;;1.30;1.20;;;24.40;59.20;;;;;;6217530;28;20056;-68
2021/07/26 01:33:26;;;;;;;1.27;1.17;;;24.40;59.20;;;;;;6217199;28;20030;-68
2021/07/26 01:36:27;;;;;;;1.13;1.02;;;24.40;59.20;;;;;;6218293;28;20030;-68
2021/07/26 01:39:28;;;;;;;1.38;1.17;;;24.40;59.20;;;;;;6217029;28;20034;-69
2021/07/26 01:42:28;;;;;;;1.50;1.20;;;24.40;59.10;;;;;;6217225;28;20088;-68
2021/07/26 01:45:30;;;;;;;1.33;1.20;;;24.40;59.10;;;;;;6217225;28;20096;-68
2021/07/26 01:48:59;;;;;;;1.23;1.10;;;24.40;59.20;;;;;;6217325;28;20469;-69
2021/07/26 01:52:00;;;;;;;1.17;1.08;;;24.40;59.20;;;;;;6217823;28;20066;-68
2021/07/26 01:55:02;;;;;;;1.38;1.27;;;24.40;59.10;;;;;;6216532;28;20056;-68
2021/07/26 01:58:02;;;;;;;1.50;1.40;;;24.40;59.20;;;;;;6217409;28;20036;-68
2021/07/26 02:01:03;;;;;;;1.25;1.10;;;24.40;59.20;;;;;;6222112;28;20038;-68
2021/07/26 02:04:03;;;;;;;0.90;0.90;;;24.40;59.20;;;;;;6221529;28;20108;-68
2021/07/26 02:07:07;;;;;;;1.65;1.23;;;24.40;59.20;;;;;;6222284;28;20065;-68
2021/07/26 02:10:08;;;;;;;1.20;1.10;;;24.40;59.20;;;;;;6222188;28;20034;-68
2021/07/26 02:13:08;;;;;;;1.30;1.10;;;24.40;59.20;;;;;;6217817;28;20022;-68
2021/07/26 02:16:10;;;;;;;1.67;1.40;;;24.40;59.20;;;;;;6219974;28;20531;-68
2021/07/26 02:19:10;;;;;;;1.85;1.20;;;24.40;59.20;;;;;;6221186;28;20041;-68
2021/07/26 02:22:11;;;;;;;1.30;1.13;;;24.40;59.20;;;;;;6221483;28;20148;-68
2021/07/26 02:25:12;;;;;;;1.67;1.30;;;24.40;59.20;;;;;;6220958;28;20022;-68
2021/07/26 02:28:12;;;;;;;1.33;1.13;;;24.40;59.20;;;;;;6221109;28;20426;-68
2021/07/26 02:31:13;;;;;;;1.38;1.27;;;24.40;59.20;;;;;;6221096;28;20022;-68
2021/07/26 02:34:13;;;;;;;1.67;1.27;;;24.40;59.20;;;;;;6220751;28;20026;-68
2021/07/26 02:37:14;;;;;;;1.30;1.20;;;24.40;59.20;;;;;;6221207;28;20559;-69
2021/07/26 02:40:15;;;;;;;1.17;1.08;;;24.40;59.20;;;;;;6220601;28;20496;-68
2021/07/26 02:43:15;;;;;;;1.27;1.17;;;24.40;59.20;;;;;;6220921;28;20034;-69
2021/07/26 02:46:16;;;;;;;1.60;1.20;;;24.40;59.20;;;;;;6220451;28;20026;-69
2021/07/26 02:49:16;;;;;;;1.20;1.10;;;24.40;59.20;;;;;;6220562;28;20022;-68
2021/07/26 02:52:17;;;;;;;1.23;1.13;;;24.40;59.20;;;;;;6220255;28;20105;-69
2021/07/26 02:55:17;;;;;;;1.30;1.20;;;24.40;59.20;;;;;;6220342;28;20510;-68
2021/07/26 02:58:20;;;;;;;1.40;1.30;;;24.40;59.20;;;;;;6220319;28;20052;-68
2021/07/26 03:01:20;;;;;;;1.40;1.30;;;24.40;59.20;;;;;;6220245;28;20034;-68
2021/07/26 03:04:21;;;;;;;1.40;1.30;;;24.40;59.20;;;;;;6219741;28;20025;-68
2021/07/26 03:07:21;;;;;;;1.40;1.15;;;24.40;59.20;;;;;;6220431;28;20021;-68
2021/07/26 03:10:22;;;;;;;1.30;1.20;;;24.40;59.20;;;;;;6218847;28;20022;-68
2021/07/26 03:13:22;;;;;;;1.40;1.30;;;24.40;59.30;;;;;;6214402;28;20022;-68
2021/07/26 03:16:23;;;;;;;1.40;1.30;;;24.40;59.20;;;;;;6209942;28;20438;-68
2021/07/26 03:19:23;;;;;;;1.20;1.10;;;24.40;59.20;;;;;;6219922;28;20050;-69
2021/07/26 03:22:49;;;;;;;1.15;1.05;;;24.40;59.20;;;;;;6220270;28;20044;-68
2021/07/26 03:25:49;;;;;;;1.35;1.25;;;24.40;59.30;;;;;;6219449;28;20049;-69
2021/07/26 03:28:50;;;;;;;1.45;1.20;;;24.40;59.20;;;;;;6220028;28;20030;-68
2021/07/26 03:31:50;;;;;;;1.30;1.20;;;24.40;59.20;;;;;;6219585;28;20420;-68
2021/07/26 03:34:50;;;;;;;1.23;1.13;;;24.40;59.20;;;;;;6219777;28;20030;-69
2021/07/26 03:37:52;;;;;;;1.23;1.13;;;24.40;59.30;;;;;;6219450;28;20026;-68
2021/07/26 03:40:52;;;;;;;1.38;1.27;;;24.40;59.20;;;;;;6219396;28;20535;-69
2021/07/26 03:43:53;;;;;;;1.45;1.25;;;24.40;59.20;;;;;;6219302;28;20022;-69
2021/07/26 03:46:53;;;;;;;1.30;1.20;;;24.40;59.20;;;;;;6219246;28;20092;-69
2021/07/26 03:49:54;;;;;;;1.25;1.15;;;24.40;59.30;;;;;;6219224;28;20029;-68
2021/07/26 03:52:56;;;;;;;1.10;1.00;;;24.40;59.30;;;;;;6219361;28;20110;-69
2021/07/26 03:55:56;;;;;;;1.42;1.30;;;24.40;59.30;;;;;;6218691;28;20084;-69
2021/07/26 03:58:57;;;;;;;1.33;1.20;;;24.40;59.30;;;;;;6218661;28;20034;-68
2021/07/26 04:01:57;;;;;;;1.20;1.10;;;24.40;59.30;;;;;;6216820;28;20045;-68
2021/07/26 04:04:58;;;;;;;1.30;1.08;;;24.40;59.30;;;;;;6219052;28;20546;-68
2021/07/26 04:08:06;;;;;;;1.20;1.10;;;24.40;59.30;;;;;;6218789;28;20030;-68
2021/07/26 04:11:55;;;;;;;1.50;1.30;;;24.40;59.20;;;;;;6218566;28;20380;-68
2021/07/26 04:14:34;;;;;;;1.15;1.05;;;24.40;59.80;;;;;;6203062;28;20129;-69
2021/07/26 04:17:35;;;;;;;1.45;1.25;;;24.40;59.30;;;;;;6205869;28;20145;-69
2021/07/26 04:20:35;;;;;;;1.30;1.00;;;24.40;59.30;;;;;;6218504;28;20026;-68
2021/07/26 04:23:36;;;;;;;1.25;1.15;;;24.40;59.30;;;;;;6218019;28;20084;-68
2021/07/26 04:26:37;;;;;;;1.58;1.25;;;24.40;59.30;;;;;;6218243;28;20168;-68
2021/07/26 04:29:37;;;;;;;1.23;1.13;;;24.40;59.30;;;;;;6218363;28;20032;-68
2021/07/26 04:32:43;;;;;;;1.45;1.35;;;24.40;59.30;;;;;;6218076;28;20152;-68
2021/07/26 04:35:44;;;;;;;1.50;1.35;;;24.40;59.30;;;;;;6218056;28;20104;-68
2021/07/26 04:38:44;;;;;;;1.75;1.45;;;24.40;59.30;;;;;;6218116;28;20564;-69
2021/07/26 04:41:45;;;;;;;1.40;1.30;;;24.40;59.30;;;;;;6217792;28;20030;-69
2021/07/26 04:44:45;;;;;;;1.50;1.23;;;24.40;59.30;;;;;;6218536;28;20372;-68
2021/07/26 04:47:46;;;;;;;1.25;1.10;;;24.40;59.30;;;;;;6217811;28;20342;-69
2021/07/26 04:50:46;;;;;;;1.45;1.35;;;24.40;59.40;;;;;;6217870;28;20108;-68
2021/07/26 04:53:47;;;;;;;1.27;1.17;;;24.40;59.30;;;;;;6217343;28;20116;-69
2021/07/26 04:56:47;;;;;;;1.30;1.20;;;24.40;59.30;;;;;;6215750;28;20501;-68
2021/07/26 04:59:48;;;;;;;1.42;1.15;;;24.40;59.30;;;;;;6217534;28;20404;-68
2021/07/26 05:02:49;;;;;;;1.30;1.20;;;24.40;59.40;;;;;;6215694;28;20058;-69
2021/07/26 05:05:50;;;;;;;1.30;1.20;;;24.40;59.30;;;;;;6217533;28;20538;-68
2021/07/26 05:08:50;;;;;;;1.70;1.42;;;24.40;59.30;;;;;;6217587;28;20030;-68
2021/07/26 05:11:51;;;;;;;1.50;1.40;;;24.40;59.30;;;;;;6217338;28;20561;-68
2021/07/26 05:14:53;;;;;;;1.23;1.13;;;24.40;60.00;;;;;;6199822;28;20142;-68
2021/07/26 05:17:53;;;;;;;1.20;1.10;;;24.40;59.30;;;;;;6196373;28;20107;-68
2021/07/26 05:20:54;;;;;;;1.23;1.13;;;24.40;59.40;;;;;;6217576;28;20034;-69
2021/07/26 05:23:54;;;;;;;1.73;1.33;;;24.40;59.30;;;;;;6217096;28;20157;-68
2021/07/26 05:27:05;;;;;;;1.60;1.30;;;24.40;59.40;;;;;;6212817;28;20101;-68
2021/07/26 05:30:06;;;;;;;1.42;1.15;;;24.40;59.30;;;;;;6205331;28;20068;-68
2021/07/26 05:33:07;;;;;;;1.40;1.20;;;24.40;59.40;;;;;;6213381;28;20030;-68
2021/07/26 05:36:07;;;;;;;1.60;1.48;;;24.40;59.40;;;;;;6215922;28;20039;-68
2021/07/26 05:39:08;;;;;;;1.60;1.38;;;24.40;59.40;;;;;;6215071;28;20121;-69
2021/07/26 05:42:10;;;;;;;1.55;1.20;;;24.40;59.30;;;;;;6216206;28;20037;-68
2021/07/26 05:45:11;;;;;;;1.83;1.52;;;24.40;60.00;;;;;;6211503;28;20053;-69
2021/07/26 05:48:11;;;;;;;1.38;1.27;;;24.40;59.30;;;;;;6209571;28;20471;-68
2021/07/26 05:51:12;;;;;;;1.90;1.35;;;24.40;59.30;;;;;;6194596;28;20092;-69
2021/07/26 05:54:13;;;;;;;1.48;1.30;;;24.40;59.40;;;;;;6201607;28;20057;-69
2021/07/26 05:57:15;;;;;;;1.45;1.35;;;24.40;59.40;;;;;;6216992;28;20037;-69
2021/07/26 06:00:24;;;;;;;1.50;1.20;;;24.40;59.40;;;;;;6211599;28;20563;-68
2021/07/26 06:03:24;;;;;;;1.73;1.35;;;24.40;59.30;;;;;;6202051;28;20371;-69
2021/07/26 06:06:25;;;;;;;1.58;1.38;;;24.40;59.40;;;;;;6219700;28;20101;-68
2021/07/26 06:09:26;;;;;;;1.75;1.40;;;24.40;59.40;;;;;;6219475;28;20032;-69
2021/07/26 06:12:29;;;;;;;2.25;1.48;;;24.40;59.40;;;;;;6219705;28;20376;-69
2021/07/26 06:15:29;;;;;;;1.73;1.42;;;24.40;59.40;;;;;;6212524;28;20485;-70
2021/07/26 06:18:30;;;;;;;1.85;1.58;;;24.40;59.40;;;;;;6219418;28;20062;-69
2021/07/26 06:21:30;;;;;;;1.65;1.52;;;24.40;59.40;;;;;;6219316;28;20366;-68
2021/07/26 06:24:31;;;;;;;2.00;1.80;;;24.40;60.00;;;;;;6219367;28;20033;-68
2021/07/26 06:27:32;;;;;;;1.70;1.60;;;24.40;59.40;;;;;;6219265;28;20077;-69
2021/07/26 06:30:32;;;;;;;1.92;1.45;;;24.40;59.40;;;;;;6219298;28;20018;-68
2021/07/26 06:33:33;;;;;;;2.90;1.73;;;24.40;59.40;;;;;;6219196;28;20026;-69
2021/07/26 06:36:36;;;;;;;1.90;1.60;;;24.40;59.40;;;;;;6219067;28;20113;-68
2021/07/26 06:39:36;;;;;;;1.70;1.50;;;24.40;59.40;;;;;;6219033;28;20541;-69
2021/07/26 06:42:37;;;;;;;1.88;1.60;;;24.40;59.40;;;;;;6218719;28;20018;-68
2021/07/26 06:45:37;;;;;;;2.20;1.90;;;24.40;59.40;;;;;;6222709;28;20083;-68
2021/07/26 06:48:38;;;;;;;2.00;1.80;;;24.40;59.40;;;;;;6223565;28;20065;-68
2021/07/26 06:51:38;;;;;;;1.92;1.70;;;24.40;59.40;;;;;;6223264;28;20026;-68
2021/07/26 06:54:39;;;;;;;2.35;2.08;;;24.40;59.40;;;;;;6223274;28;20060;-69
2021/07/26 06:57:40;;;;;;;2.00;1.80;;;24.40;59.40;;;;;;6223014;28;20022;-69
2021/07/26 07:00:40;;;;;;;2.10;1.85;;;24.40;59.40;;;;;;6223084;28;20544;-69
2021/07/26 07:03:45;;;;;;;2.60;2.10;;;24.40;59.40;;;;;;6223132;28;20026;-69
2021/07/26 07:06:45;;;;;;;1.90;1.70;;;24.40;59.40;;;;;;6222382;28;20412;-69
2021/07/26 07:09:47;;;;;;;2.55;2.10;;;24.40;59.50;;;;;;6222211;28;20065;-68
2021/07/26 07:12:50;;;;;;;2.28;2.08;;;24.40;59.40;;;;;;6221797;28;20014;-68
2021/07/26 07:15:50;;;;;;;2.40;2.00;;;24.40;59.40;;;;;;6204417;28;20026;-68
2021/07/26 07:18:53;;;;;;;2.17;1.98;;;24.40;59.50;;;;;;6222517;28;20077;-68
2021/07/26 07:21:53;;;;;;;2.30;2.10;;;24.40;59.40;;;;;;6222832;28;20120;-69
2021/07/26 07:24:54;;;;;;;2.20;2.00;;;24.40;59.50;;;;;;6222859;28;20037;-68
2021/07/26 07:27:54;;;;;;;2.70;2.22;;;24.40;59.50;;;;;;6222676;28;20022;-68
2021/07/26 07:30:55;;;;;;;2.90;2.40;;;24.40;59.40;;;;;;6222402;28;20119;-68
2021/07/26 07:33:57;;;;;;;2.85;2.10;;;24.40;59.40;;;;;;6222636;28;20030;-68
2021/07/26 07:36:58;;;;;;;2.10;1.90;;;24.40;59.40;;;;;;6222608;28;20073;-68
2021/07/26 07:40:00;;;;;;;2.63;2.22;;;24.40;59.40;;;;;;6222852;28;20179;-68
2021/07/26 07:43:01;;;;;;;2.65;2.20;;;24.40;59.50;;;;;;6222318;28;20034;-68
2021/07/26 07:46:03;;;;;;;2.75;2.28;;;24.40;59.40;;;;;;6222104;28;20500;-69
2021/07/26 07:49:05;;;;;;;2.38;2.17;;;24.40;59.40;;;;;;6222284;28;20029;-69
2021/07/26 07:52:07;;;;;;;2.97;2.28;;;24.40;59.50;;;;;;6222153;28;20060;-69
2021/07/26 07:55:08;;;;;;;2.08;1.88;;;24.40;59.50;;;;;;6221595;28;20046;-69
2021/07/26 07:58:09;;;;;;;2.97;2.45;;;24.40;59.50;;;;;;6221976;28;20044;-68
2021/07/26 08:01:10;;;;;;;2.50;2.15;;;24.40;59.50;;;;;;6221946;28;20026;-68
2021/07/26 08:04:10;;;;;;;2.28;2.03;;;24.40;59.50;;;;;;6221868;28;20034;-68
2021/07/26 08:07:11;;;;;;;2.72;2.10;;;24.40;59.50;;;;;;6221678;28;20062;-69
2021/07/26 08:10:13;;;;;;;2.25;2.00;;;24.40;59.50;;;;;;6221721;28;20033;-69
2021/07/26 08:13:20;;;;;;;2.35;2.15;;;24.40;59.50;;;;;;6217200;28;20027;-69
2021/07/26 08:16:23;;;;;;;3.72;2.83;;;24.40;59.50;;;;;;6200688;28;20102;-68
2021/07/26 08:19:24;;;;;;;3.00;2.30;;;24.40;59.80;;;;;;6220039;28;20046;-69
2021/07/26 08:22:24;;;;;;;5.32;2.20;;;24.40;59.50;;;;;;6219468;28;20044;-69
2021/07/26 08:25:25;;;;;;;2.55;2.25;;;24.50;59.60;;;;;;6219664;28;20033;-69
2021/07/26 08:28:25;;;;;;;2.15;1.95;;;24.40;59.50;;;;;;6220017;28;20028;-68
2021/07/26 08:31:26;;;;;;;3.35;2.50;;;24.40;59.60;;;;;;6219226;28;20492;-68
2021/07/26 08:34:26;;;;;;;2.80;2.50;;;24.40;59.50;;;;;;6218967;28;20026;-69
2021/07/26 08:37:28;;;;;;;4.32;2.50;;;24.40;59.60;;;;;;6219602;28;20033;-69
2021/07/26 08:40:30;;;;;;;6.38;3.10;;;24.40;59.60;;;;;;6218512;28;20069;-70
2021/07/26 08:43:30;;;;;;;4.28;3.33;;;24.40;59.80;;;;;;6219188;28;20095;-69
2021/07/26 08:46:32;;;;;;;4.00;3.38;;;24.50;60.00;;;;;;6218927;28;20105;-68
2021/07/26 08:49:34;;;;;;;5.10;3.33;;;24.40;60.00;;;;;;6219914;28;20028;-69
2021/07/26 08:52:42;;;;;;;5.07;3.28;;;24.40;60.20;;;;;;6216610;28;20026;-68
2021/07/26 08:55:42;;;;;;;5.15;3.50;;;24.40;60.20;;;;;;6219333;28;20058;-69
2021/07/26 08:58:43;;;;;;;4.40;3.70;;;24.40;60.20;;;;;;6219630;28;20450;-68
2021/07/26 09:01:45;;;;;;;4.35;3.72;;;24.40;60.30;;;;;;6220122;28;20143;-68
2021/07/26 09:04:46;;;;;;;4.70;3.42;;;24.40;60.30;;;;;;6218274;28;20393;-68
2021/07/26 09:07:48;;;;;;;3.88;3.40;;;24.40;60.30;;;;;;6219910;28;20030;-68
2021/07/26 09:10:48;;;;;;;4.78;3.75;;;24.40;60.30;;;;;;6200931;28;20337;-68
2021/07/26 09:13:49;;;;;;;6.22;4.70;;;24.40;60.30;;;;;;6210472;28;20026;-69
2021/07/26 09:16:56;;;;;;;6.40;4.43;;;24.40;60.40;;;;;;6210084;28;20038;-69
2021/07/26 09:19:59;;;;;;;5.53;3.83;;;24.40;60.40;;;;;;6218655;28;20037;-69
2021/07/26 09:23:16;;;;;;;5.20;3.92;;;24.40;60.30;;;;;;6218848;28;20026;-69
2021/07/26 09:26:27;;;;;;;7.85;4.38;;;24.40;60.30;;;;;;6218352;28;20048;-69
2021/07/26 09:29:30;;;;;;;5.82;4.60;;;24.40;60.20;;;;;;6219262;28;20595;-69
2021/07/26 09:32:38;;;;;;;5.93;4.35;;;24.40;60.40;;;;;;6218632;28;20029;-69
2021/07/26 09:35:38;;;;;;;8.02;5.10;;;24.40;60.60;;;;;;6218623;28;20033;-69
2021/07/26 09:38:58;;;;;;;8.88;3.88;;;24.40;60.70;;;;;;6218345;28;20045;-69
2021/07/26 09:41:59;;;;;;;5.90;4.47;;;24.40;60.80;;;;;;6218591;28;20108;-69
2021/07/26 09:45:25;;;;;;;6.18;4.20;;;24.40;60.70;;;;;;6218485;28;20038;-69
2021/07/26 09:48:27;;;;;;;4.85;4.13;;;24.40;60.60;;;;;;6218500;28;20105;-68
2021/07/26 09:51:28;;;;;;;5.03;3.88;;;24.50;60.60;;;;;;6218214;28;20436;-69
2021/07/26 09:54:44;;;;;;;5.18;4.10;;;24.40;60.40;;;;;;6216981;28;20057;-69
2021/07/26 09:57:45;;;;;;;5.38;4.20;;;24.40;60.30;;;;;;6218065;28;20429;-69
2021/07/26 10:00:46;;;;;;;5.00;3.90;;;24.40;60.30;;;;;;6218708;28;20025;-69
2021/07/26 10:03:50;;;;;;;4.22;3.70;;;24.40;60.20;;;;;;6217222;28;20032;-69
2021/07/26 10:06:52;;;;;;;5.13;4.10;;;24.40;60.20;;;;;;6218090;28;20030;-68
2021/07/26 10:09:53;;;;;;;3.72;3.20;;;24.40;60.20;;;;;;6216932;28;20327;-68
2021/07/26 10:12:54;;;;;;;4.82;3.40;;;24.40;60.20;;;;;;6216412;28;20037;-69
2021/07/26 10:15:56;;;;;;;3.85;3.45;;;24.40;60.00;;;;;;6212578;28;20068;-69
2021/07/26 10:18:56;;;;;;;5.13;3.75;;;24.40;60.10;;;;;;6219278;28;20042;-69
2021/07/26 10:21:57;;;;;;;5.47;3.60;;;24.40;60.00;;;;;;6222474;28;20034;-69
2021/07/26 10:25:15;;;;;;;5.05;3.47;;;24.40;60.00;;;;;;6222726;28;20064;-69
2021/07/26 10:28:25;;;;;;;3.95;3.40;;;24.40;60.00;;;;;;6222251;28;20033;-68
2021/07/26 10:31:29;;;;;;;4.43;3.78;;;24.40;60.00;;;;;;6222297;28;20034;-69
2021/07/26 10:34:33;;;;;;;4.30;3.37;;;24.40;60.00;;;;;;6222166;28;20033;-69
2021/07/26 10:37:37;;;;;;;3.95;3.28;;;24.40;60.00;;;;;;6222654;28;20033;-70
2021/07/26 10:40:41;;;;;;;3.65;3.10;;;24.40;60.00;;;;;;6222113;28;20022;-69
2021/07/26 10:43:55;;;;;;;4.15;3.38;;;24.40;60.00;;;;;;6222466;28;20030;-69
2021/07/26 10:46:56;;;;;;;3.85;3.30;;;24.40;60.00;;;;;;6222460;28;20033;-69
2021/07/26 10:50:14;;;;;;;3.95;3.38;;;24.40;60.00;;;;;;6222464;28;20095;-69
2021/07/26 10:53:34;;;;;;;3.63;3.22;;;24.40;60.00;;;;;;6220785;28;20527;-69
2021/07/26 10:56:59;;;;;;;3.95;3.25;;;24.40;60.00;;;;;;6221597;28;20057;-69
2021/07/26 11:00:19;;;;;;;3.40;3.10;;;24.40;60.00;;;;;;6221085;28;20081;-69
2021/07/26 11:03:42;;;;;;;3.85;3.30;;;24.50;60.10;;;;;;6221854;28;20026;-69
2021/07/26 11:06:42;;;;;;;5.47;3.42;;;24.40;60.00;;;;;;6220973;28;20102;-69
2021/07/26 11:09:44;;;;;;;4.38;3.40;;;24.40;60.00;;;;;;6211396;28;20036;-69
2021/07/26 11:12:55;;;;;;;3.45;3.08;;;24.40;60.00;;;;;;6218511;28;20424;-69
2021/07/26 11:15:55;;;;;;;3.97;3.28;;;24.40;60.00;;;;;;6220446;28;20032;-68
2021/07/26 11:18:56;;;;;;;3.55;3.20;;;24.40;60.00;;;;;;6221365;28;20037;-69
2021/07/26 11:21:57;;;;;;;4.53;3.67;;;24.40;60.00;;;;;;6221725;28;20481;-69
2021/07/26 11:25:06;;;;;;;3.58;3.00;;;24.40;59.90;;;;;;6204495;28;20352;-68
2021/07/26 11:28:07;;;;;;;3.25;2.95;;;24.40;59.90;;;;;;6210984;28;20053;-69
2021/07/26 11:31:07;;;;;;;3.92;3.38;;;24.40;59.90;;;;;;6219666;28;20096;-69
2021/07/26 11:34:12;;;;;;;4.28;2.95;;;24.40;60.00;;;;;;6222351;28;20507;-68
2021/07/26 11:37:14;;;;;;;4.20;3.33;;;24.40;59.90;;;;;;6219257;28;20173;-69
2021/07/26 11:40:15;;;;;;;3.75;3.03;;;24.40;59.90;;;;;;6221227;28;20124;-69
2021/07/26 11:43:16;;;;;;;3.47;2.80;;;24.40;59.90;;;;;;6220080;28;20484;-69
2021/07/26 11:46:17;;;;;;;3.90;2.78;;;24.40;59.90;;;;;;6220716;28;20050;-69
2021/07/26 11:49:18;;;;;;;4.10;3.03;;;24.40;59.90;;;;;;6221254;28;20072;-69
2021/07/26 11:52:18;;;;;;;3.75;2.80;;;24.40;59.90;;;;;;6220757;28;20022;-69
2021/07/26 11:55:19;;;;;;;3.30;2.85;;;24.40;59.90;;;;;;6215013;28;20054;-69
2021/07/26 11:58:27;;;;;;;3.15;2.67;;;24.40;59.90;;;;;;6219352;28;20042;-69
2021/07/26 12:01:28;;;;;;;3.60;3.00;;;24.40;59.90;;;;;;6219345;28;20401;-69
2021/07/26 12:04:29;;;;;;;3.20;2.90;;;24.40;59.90;;;;;;6218961;28;20041;-69
2021/07/26 12:07:44;;;;;;;4.53;2.60;;;24.40;59.90;;;;;;6222129;28;20025;-69
2021/07/26 12:10:46;;;;;;;4.10;3.53;;;24.40;59.90;;;;;;6231136;28;20014;-69
2021/07/26 12:13:47;;;;;;;3.30;2.67;;;24.40;59.90;;;;;;6211072;28;20308;-70
2021/07/26 12:16:59;;;;;;;3.92;2.80;;;24.40;59.90;;;;;;6210892;28;20034;-69
2021/07/26 12:20:03;;;;;;;3.13;2.30;;;24.40;59.90;;;;;;6219440;28;20038;-69
2021/07/26 12:23:20;;;;;;;3.40;2.97;;;24.40;59.90;;;;;;6219126;28;20062;-69
2021/07/26 12:26:21;;;;;;;3.67;2.72;;;24.40;59.90;;;;;;6219006;28;20037;-69
2021/07/26 12:29:22;;;;;;;3.50;2.83;;;24.40;59.90;;;;;;6218113;28;20160;-69
2021/07/26 12:32:23;;;;;;;3.20;2.83;;;24.40;59.90;;;;;;6217359;28;20049;-68
2021/07/26 12:35:26;;;;;;;2.92;2.55;;;24.40;59.90;;;;;;6221201;28;20026;-69
2021/07/26 12:38:26;;;;;;;3.15;2.80;;;24.40;59.90;;;;;;6223254;28;20029;-69
2021/07/26 12:41:31;;;;;;;6.38;2.90;;;24.40;60.00;;;;;;6217502;28;20033;-69
2021/07/26 12:44:34;;;;;;;;;;;24.50;60.60;;;;;;6219994;28;20042;-69
2021/07/26 12:47:42;;;;;;;3.40;3.00;;;24.50;60.50;;;;;;6217996;28;19905;-69
2021/07/26 12:50:46;;;;;;;3.35;2.70;;;24.50;60.60;;;;;;6219614;28;20113;-69
2021/07/26 12:53:51;;;;;;;3.58;3.00;;;24.50;60.50;;;;;;6216863;28;20424;-69
2021/07/26 12:56:51;;;;;;;2.92;2.50;;;24.40;60.30;;;;;;6218632;28;20416;-69
2021/07/26 12:59:52;;;;;;;2.95;2.40;;;24.50;60.40;;;;;;6218910;28;20041;-69
2021/07/26 13:02:54;;;;;;;3.65;2.85;;;24.40;61.00;;;;;;6220726;28;20049;-68
2021/07/26 13:05:55;;;;;;;3.08;2.65;;;24.40;60.10;;;;;;6216950;28;20129;-69
2021/07/26 13:08:55;;;;;;;2.63;2.42;;;24.40;60.10;;;;;;6217455;28;20033;-68
2021/07/26 13:11:56;;;;;;;3.03;2.60;;;24.40;60.10;;;;;;6215847;28;20026;-69
2021/07/26 13:14:56;;;;;;;3.85;2.70;;;24.50;60.20;;;;;;6218709;28;20029;-68
2021/07/26 13:17:58;;;;;;;2.92;2.42;;;24.40;60.00;;;;;;6216374;28;20034;-69
2021/07/26 13:20:58;;;;;;;2.80;2.35;;;24.40;60.00;;;;;;6218292;28;20025;-69
2021/07/26 13:23:59;;;;;;;2.55;2.35;;;24.40;60.00;;;;;;6217976;28;20025;-69
2021/07/26 13:26:59;;;;;;;3.10;2.45;;;24.40;60.00;;;;;;6217221;28;20030;-69
2021/07/26 13:30:00;;;;;;;3.22;2.72;;;24.40;60.00;;;;;;6216892;28;20018;-69
2021/07/26 13:33:01;;;;;;;2.90;2.60;;;24.40;60.00;;;;;;6217398;28;20049;-69
2021/07/26 13:36:02;;;;;;;2.97;2.65;;;24.40;60.00;;;;;;6217602;28;20018;-69
2021/07/26 13:39:03;;;;;;;4.45;2.90;;;24.40;60.00;;;;;;6217611;28;20103;-68
2021/07/26 13:42:03;;;;;;;2.55;2.35;;;24.40;60.00;;;;;;6216740;28;20109;-69
2021/07/26 13:45:04;;;;;;;2.67;2.38;;;24.40;60.00;;;;;;6217914;28;20018;-69
2021/07/26 13:48:06;;;;;;;6.68;2.70;;;24.40;60.00;;;;;;6217236;28;20123;-69
2021/07/26 13:51:07;;;;;;;2.60;2.38;;;24.40;60.00;;;;;;6218044;28;20373;-68
2021/07/26 13:54:08;;;;;;;3.45;2.58;;;24.40;60.00;;;;;;6221634;28;20041;-69
2021/07/26 13:57:08;;;;;;;4.07;2.20;;;24.40;60.00;;;;;;6225054;28;20030;-69
2021/07/26 14:00:10;;;;;;;2.38;2.17;;;24.40;60.00;;;;;;6224847;28;20049;-69
2021/07/26 14:03:11;;;;;;;4.68;2.50;;;24.40;60.00;;;;;;6224791;28;20119;-69
2021/07/26 14:06:12;;;;;;;3.40;2.55;;;24.40;60.00;;;;;;6224737;28;20018;-69
2021/07/26 14:09:12;;;;;;;2.60;2.17;;;24.40;60.00;;;;;;6225341;28;20528;-69
2021/07/26 14:12:13;;;;;;;3.20;2.20;;;24.40;60.00;;;;;;6224908;28;20022;-69
2021/07/26 14:15:14;;;;;;;2.83;2.42;;;24.40;60.00;;;;;;6214065;28;20117;-69
2021/07/26 14:18:17;;;;;;;2.63;2.38;;;24.40;60.00;;;;;;6224533;28;20117;-68
2021/07/26 14:21:18;;;;;;;3.33;2.20;;;24.40;60.00;;;;;;6224370;28;20014;-69
2021/07/26 14:24:18;;;;;;;3.30;2.55;;;24.40;60.00;;;;;;6224538;28;20504;-68
2021/07/26 14:27:19;;;;;;;2.63;2.38;;;24.50;60.00;;;;;;6224397;28;20057;-69
2021/07/26 14:30:19;;;;;;;2.30;2.00;;;24.40;60.00;;;;;;6224500;28;20117;-69
2021/07/26 14:33:20;;;;;;;2.80;2.40;;;24.40;60.00;;;;;;6224299;28;20392;-69
2021/07/26 14:36:20;;;;;;;2.90;2.40;;;24.40;60.00;;;;;;6223717;28;20033;-69
2021/07/26 14:39:21;;;;;;;2.72;2.53;;;24.40;60.00;;;;;;6224129;28;20034;-70
2021/07/26 14:42:22;;;;;;;3.55;2.30;;;24.50;60.00;;;;;;6224161;28;20053;-68
2021/07/26 14:45:22;;;;;;;2.20;2.00;;;24.40;60.00;;;;;;6223645;28;20493;-69
2021/07/26 14:48:23;;;;;;;2.33;2.10;;;24.40;60.00;;;;;;6224085;28;20021;-69
2021/07/26 14:51:24;;;;;;;2.50;2.30;;;24.50;60.10;;;;;;6223875;28;20053;-69
2021/07/26 14:54:24;;;;;;;2.72;2.42;;;24.40;60.00;;;;;;6223956;28;20053;-69
2021/07/26 14:57:25;;;;;;;2.72;2.20;;;24.40;60.00;;;;;;6222966;28;20022;-69
2021/07/26 15:00:25;;;;;;;2.30;2.10;;;24.40;60.00;;;;;;6223501;28;20381;-69
2021/07/26 15:03:26;;;;;;;4.47;2.83;;;24.40;60.00;;;;;;6223337;28;20104;-69
2021/07/26 15:06:27;;;;;;;3.08;2.28;;;24.40;60.00;;;;;;6223200;28;20461;-69
2021/07/26 15:09:27;;;;;;;2.05;1.80;;;24.40;60.60;;;;;;6222950;28;20251;-69
2021/07/26 15:12:28;;;;;;;2.72;2.30;;;24.40;60.00;;;;;;6223261;28;20030;-69
2021/07/26 15:15:29;;;;;;;2.85;2.35;;;24.40;60.00;;;;;;6201967;28;20030;-69
2021/07/26 15:18:29;;;;;;;2.30;2.10;;;24.40;60.00;;;;;;6223172;28;20045;-69
2021/07/26 15:21:30;;;;;;;2.42;2.20;;;24.50;60.10;;;;;;6223010;28;20057;-69
2021/07/26 15:24:30;;;;;;;2.70;2.22;;;24.40;60.00;;;;;;6222963;28;20381;-69
2021/07/26 15:27:31;;;;;;;2.42;2.22;;;24.40;60.00;;;;;;6222555;28;20389;-69
2021/07/26 15:30:31;;;;;;;2.28;2.00;;;24.40;60.00;;;;;;6222646;28;20453;-69
2021/07/26 15:33:32;;;;;;;2.13;1.92;;;24.40;60.00;;;;;;6223229;28;20350;-69
2021/07/26 15:36:33;;;;;;;2.15;1.88;;;24.40;60.00;;;;;;6223081;28;20060;-69
2021/07/26 15:39:34;;;;;;;2.78;2.00;;;24.40;60.00;;;;;;6222785;28;20729;-69
2021/07/26 15:42:35;;;;;;;2.55;2.08;;;24.40;60.00;;;;;;6222369;28;20030;-69
2021/07/26 15:45:35;;;;;;;2.47;1.83;;;24.40;60.00;;;;;;6222542;28;20342;-69
2021/07/26 15:48:36;;;;;;;2.28;2.08;;;24.40;60.00;;;;;;6222586;28;20022;-68
2021/07/26 15:51:36;;;;;;;2.00;1.80;;;24.40;60.00;;;;;;6222435;28;20026;-69